Hlavní strana
METAR-TAF:

METAR-TAF

Letiště :

Såtenäs, Švédsko

zeměpisná šířka: 58-26N, zeměpisná délka: 012-42E, výška: 54 m

Aktuální stav počasí

Zpráva byla vytvořena před 31 minutami, v 02:50 UTC
Jižní vítr 8 kt
Teplota -2°C
Vlhkost vzduchu 100%
Tlak 1013 hPa
Viditelnost 10 km a více

METAR: ESIB 210250Z AUTO 18008KT 9999 SCT010/// BKN068/// OVC088/// M02/M02 Q1013

Čas: 04:21 (03:21 UTC)


TAF: chybějící

Stav a předpovědi počasí z více než 4 000 letišť (zprávy METAR a TAF).

Červené a žluté tečky na mapě představují dostupné meteorologické stanice.

Když kurzor umístíte na tečku, zobrazí se název stanice.

Pak kliknutím zobrazíte stav a předpověď počasí.

Chcete-li změnit mapu, kliknutím na zelené tlačítko se znaménkem +mapu přiblížíte, kliknutím na zelené tlačítko se znaménkem – mapu oddálíte a kliknutím na zelené šipky přejdete na sousední mapy.


METAR-TAF: